createdAt,value
2018-12-12T00:01:41.470Z,3.70
2018-12-12T00:04:10.042Z,3.70
2018-12-12T00:06:38.363Z,3.70
2018-12-12T00:09:07.282Z,3.70
2018-12-12T00:11:35.686Z,3.70
2018-12-12T00:14:04.134Z,3.80
2018-12-12T00:16:32.614Z,3.80
2018-12-12T00:19:00.958Z,3.80
2018-12-12T00:21:29.399Z,3.80
2018-12-12T00:23:57.795Z,3.80
2018-12-12T00:26:26.318Z,3.90
2018-12-12T00:28:54.664Z,3.90
2018-12-12T00:31:23.016Z,3.90
2018-12-12T00:33:51.403Z,4.00
2018-12-12T00:36:19.748Z,4.00
2018-12-12T00:38:48.101Z,4.00
2018-12-12T00:41:16.449Z,4.00
2018-12-12T00:43:44.823Z,4.00
2018-12-12T00:46:13.156Z,4.00
2018-12-12T00:48:41.519Z,4.00
2018-12-12T00:51:09.861Z,4.00
2018-12-12T00:53:38.195Z,4.00
2018-12-12T00:56:06.535Z,4.00
2018-12-12T00:58:34.900Z,4.00
2018-12-12T01:01:03.257Z,4.00
2018-12-12T01:03:31.613Z,4.00
2018-12-12T01:06:00.003Z,4.00
2018-12-12T01:08:28.345Z,4.00
2018-12-12T01:11:02.142Z,4.00
2018-12-12T01:13:30.486Z,4.00
2018-12-12T01:15:58.835Z,4.00
2018-12-12T01:18:27.183Z,4.00
2018-12-12T01:20:55.548Z,4.00
2018-12-12T01:23:23.903Z,4.00
2018-12-12T01:25:52.258Z,4.00
2018-12-12T01:28:20.572Z,4.00
2018-12-12T01:30:48.936Z,4.00
2018-12-12T01:33:17.263Z,4.00
2018-12-12T01:35:45.642Z,4.00
2018-12-12T01:38:14.062Z,4.00
2018-12-12T01:40:42.418Z,4.00
2018-12-12T01:43:10.858Z,4.00
2018-12-12T01:45:39.298Z,4.00
2018-12-12T01:48:07.645Z,4.00
2018-12-12T01:50:36.031Z,4.00
2018-12-12T01:53:04.457Z,4.00
2018-12-12T01:55:33.231Z,3.90
2018-12-12T01:58:01.571Z,4.00
2018-12-12T02:00:29.963Z,4.00
2018-12-12T02:02:58.304Z,4.00
2018-12-12T02:05:26.807Z,3.90
2018-12-12T02:07:55.462Z,3.90
2018-12-12T02:10:24.141Z,3.80
2018-12-12T02:13:03.864Z,3.80
2018-12-12T02:15:32.215Z,3.80
2018-12-12T02:18:00.576Z,3.70
2018-12-12T02:20:28.970Z,3.70
2018-12-12T02:22:57.311Z,3.70
2018-12-12T02:25:25.791Z,3.70
2018-12-12T02:27:54.219Z,3.70
2018-12-12T02:30:22.588Z,3.70
2018-12-12T02:32:50.967Z,3.60
2018-12-12T02:35:19.317Z,3.60
2018-12-12T02:37:47.667Z,3.60
2018-12-12T02:40:15.992Z,3.60
2018-12-12T02:42:44.359Z,3.50
2018-12-12T02:45:12.695Z,3.50
2018-12-12T02:47:41.076Z,3.50
2018-12-12T02:50:09.414Z,3.50
2018-12-12T02:52:37.881Z,3.50
2018-12-12T02:55:06.331Z,3.50
2018-12-12T02:57:34.699Z,3.50
2018-12-12T03:00:03.501Z,3.50
2018-12-12T03:02:32.087Z,3.50
2018-12-12T03:05:00.459Z,3.50
2018-12-12T03:07:28.814Z,3.60
2018-12-12T03:09:57.180Z,3.60
2018-12-12T03:12:25.519Z,3.60
2018-12-12T03:14:53.894Z,3.60
2018-12-12T03:17:22.231Z,3.60
2018-12-12T03:19:50.589Z,3.60
2018-12-12T03:22:18.927Z,3.60
2018-12-12T03:24:47.279Z,3.60
2018-12-12T03:27:15.765Z,3.60
2018-12-12T03:29:44.122Z,3.60
2018-12-12T03:32:17.824Z,3.60
2018-12-12T03:34:46.194Z,3.60
2018-12-12T03:37:14.531Z,3.60
2018-12-12T03:39:42.870Z,3.60
2018-12-12T03:42:11.218Z,3.70
2018-12-12T03:44:39.553Z,3.60
2018-12-12T03:47:07.887Z,3.70
2018-12-12T03:49:36.217Z,3.60
2018-12-12T03:52:04.690Z,3.60
2018-12-12T03:54:33.009Z,3.70
2018-12-12T03:57:01.371Z,3.60
2018-12-12T03:59:29.718Z,3.70
2018-12-12T04:01:58.202Z,3.60
2018-12-12T04:04:26.502Z,3.70
2018-12-12T04:06:54.852Z,3.60
2018-12-12T04:09:23.274Z,3.60
2018-12-12T04:11:51.672Z,3.60
2018-12-12T04:14:20.028Z,3.60
2018-12-12T04:16:48.374Z,3.60
2018-12-12T04:19:16.700Z,3.60
2018-12-12T04:21:45.066Z,3.60
2018-12-12T04:24:13.407Z,3.60
2018-12-12T04:26:41.779Z,3.60
2018-12-12T04:29:10.183Z,3.60
2018-12-12T04:31:38.566Z,3.60
2018-12-12T04:34:06.923Z,3.60
2018-12-12T04:36:35.288Z,3.70
2018-12-12T04:39:05.587Z,3.70
2018-12-12T04:41:34.065Z,3.70
2018-12-12T04:44:02.499Z,3.70
2018-12-12T04:46:30.855Z,3.70
2018-12-12T04:48:59.201Z,3.70
2018-12-12T04:51:27.574Z,3.70
2018-12-12T04:53:55.897Z,3.70
2018-12-12T04:56:24.286Z,3.70
2018-12-12T04:58:53.535Z,3.70
2018-12-12T05:01:21.882Z,3.70
2018-12-12T05:03:50.220Z,3.70
2018-12-12T05:06:18.574Z,3.80
2018-12-12T05:08:47.265Z,3.80
2018-12-12T05:11:15.610Z,3.80
2018-12-12T05:13:43.950Z,3.80
2018-12-12T05:16:12.324Z,3.80
2018-12-12T05:18:40.670Z,3.80
2018-12-12T05:21:09.040Z,3.70
2018-12-12T05:23:37.384Z,3.70
2018-12-12T05:26:05.750Z,3.70
2018-12-12T05:28:34.107Z,3.70
2018-12-12T05:31:02.436Z,3.70
2018-12-12T05:33:30.842Z,3.70
2018-12-12T05:35:59.161Z,3.70
2018-12-12T05:38:27.550Z,3.70
2018-12-12T05:40:55.910Z,3.70
2018-12-12T05:43:24.276Z,3.70
2018-12-12T05:45:52.791Z,3.70
2018-12-12T05:48:21.179Z,3.70
2018-12-12T05:50:49.519Z,3.70
2018-12-12T05:53:17.866Z,3.80
2018-12-12T05:55:46.195Z,3.80
2018-12-12T05:58:14.558Z,3.80
2018-12-12T06:00:42.994Z,3.80
2018-12-12T06:03:11.452Z,3.80
2018-12-12T06:05:39.824Z,3.80
2018-12-12T06:08:08.174Z,3.80
2018-12-12T06:10:36.546Z,3.80
2018-12-12T06:13:05.010Z,3.80
2018-12-12T06:15:33.889Z,3.80
2018-12-12T06:18:02.247Z,3.80
2018-12-12T06:20:30.555Z,3.80
2018-12-12T06:23:00.061Z,3.80
2018-12-12T06:25:28.570Z,3.80
2018-12-12T06:27:56.954Z,3.80
2018-12-12T06:30:25.286Z,3.80
2018-12-12T06:32:53.633Z,3.80
2018-12-12T06:35:21.953Z,3.80
2018-12-12T06:37:50.309Z,3.80
2018-12-12T06:40:18.638Z,3.80
2018-12-12T06:42:46.978Z,3.80
2018-12-12T06:45:15.287Z,3.80
2018-12-12T06:47:43.638Z,3.80
2018-12-12T06:50:11.959Z,3.80
2018-12-12T06:52:40.333Z,3.80
2018-12-12T06:55:08.888Z,3.80
2018-12-12T06:57:37.296Z,3.80
2018-12-12T07:00:05.849Z,3.80
2018-12-12T07:02:34.219Z,3.80
2018-12-12T07:05:02.543Z,3.80
2018-12-12T07:07:31.216Z,3.80
2018-12-12T07:09:59.518Z,3.80
2018-12-12T07:12:27.833Z,3.80
2018-12-12T07:14:56.174Z,3.80
2018-12-12T07:17:24.482Z,3.80
2018-12-12T07:19:52.823Z,3.90
2018-12-12T07:22:21.216Z,3.80
2018-12-12T07:24:49.596Z,3.90
2018-12-12T07:27:17.943Z,3.90
2018-12-12T07:29:46.295Z,3.90
2018-12-12T07:32:14.734Z,3.90
2018-12-12T07:34:43.058Z,3.90
2018-12-12T07:37:11.371Z,3.90
2018-12-12T07:39:39.758Z,3.90
2018-12-12T07:42:08.079Z,3.90
2018-12-12T07:44:36.424Z,3.90
2018-12-12T07:47:04.871Z,3.90
2018-12-12T07:49:33.535Z,3.90
2018-12-12T07:52:01.891Z,3.90
2018-12-12T07:54:30.246Z,3.90
2018-12-12T07:56:58.575Z,3.90
2018-12-12T07:59:26.931Z,3.90
2018-12-12T08:01:55.278Z,3.90
2018-12-12T08:04:23.614Z,4.00
2018-12-12T08:06:52.081Z,4.00
2018-12-12T08:09:20.402Z,4.00
2018-12-12T08:11:48.746Z,4.00
2018-12-12T08:14:17.102Z,4.00
2018-12-12T08:16:45.426Z,4.00
2018-12-12T08:19:13.758Z,4.00
2018-12-12T08:21:42.094Z,4.10
2018-12-12T08:24:10.535Z,4.10
2018-12-12T08:26:38.865Z,4.10
2018-12-12T08:29:07.217Z,4.10
2018-12-12T08:31:35.590Z,4.10
2018-12-12T08:34:04.004Z,4.20
2018-12-12T08:36:32.502Z,4.20
2018-12-12T08:39:00.873Z,4.20
2018-12-12T08:41:29.300Z,4.20
2018-12-12T08:43:59.060Z,4.30
2018-12-12T08:46:27.571Z,4.30
2018-12-12T08:48:55.928Z,4.30
2018-12-12T08:51:24.278Z,4.40
2018-12-12T08:53:52.585Z,4.40
2018-12-12T08:56:21.044Z,4.40
2018-12-12T08:58:49.390Z,4.40
2018-12-12T09:01:17.910Z,4.50
2018-12-12T09:03:46.237Z,4.50
2018-12-12T09:06:14.599Z,4.50
2018-12-12T09:08:42.921Z,4.50
2018-12-12T09:11:11.290Z,4.50
2018-12-12T09:13:39.604Z,4.60
2018-12-12T09:16:07.938Z,4.60
2018-12-12T09:18:36.279Z,4.60
2018-12-12T09:21:04.607Z,4.70
2018-12-12T09:23:32.951Z,4.70
2018-12-12T09:26:01.293Z,4.70
2018-12-12T09:28:29.623Z,4.70
2018-12-12T09:30:58.001Z,4.80
2018-12-12T09:33:26.379Z,4.80
2018-12-12T09:35:54.798Z,4.80
2018-12-12T09:38:23.135Z,4.80
2018-12-12T09:40:51.623Z,4.90
2018-12-12T09:43:19.986Z,4.90
2018-12-12T09:45:48.284Z,4.90
2018-12-12T09:48:19.710Z,4.90
2018-12-12T09:50:47.040Z,4.90
2018-12-12T09:53:15.576Z,5.00
2018-12-12T09:55:43.965Z,5.00
2018-12-12T09:58:17.742Z,5.00
2018-12-12T10:00:46.108Z,5.00
2018-12-12T10:03:14.487Z,5.10
2018-12-12T10:05:42.820Z,5.00
2018-12-12T10:08:11.194Z,5.10
2018-12-12T10:10:39.533Z,5.10
2018-12-12T10:13:07.894Z,5.10
2018-12-12T10:15:36.210Z,5.10
2018-12-12T10:18:04.545Z,5.10
2018-12-12T10:20:32.876Z,5.20
2018-12-12T10:23:01.248Z,5.20
2018-12-12T10:25:29.587Z,5.20
2018-12-12T10:27:57.923Z,5.20
2018-12-12T10:30:26.259Z,5.20
2018-12-12T10:32:54.719Z,5.20
2018-12-12T10:35:23.033Z,5.20
2018-12-12T10:37:51.414Z,5.20
2018-12-12T10:40:19.774Z,5.20
2018-12-12T10:42:48.151Z,5.20
2018-12-12T10:45:16.476Z,5.20
2018-12-12T10:47:44.890Z,5.30
2018-12-12T10:50:13.238Z,5.30
2018-12-12T10:52:41.590Z,5.30
2018-12-12T10:55:10.037Z,5.40
2018-12-12T10:57:38.383Z,5.40
2018-12-12T11:00:12.587Z,5.40
2018-12-12T11:02:45.182Z,5.50
2018-12-12T11:05:13.614Z,5.50
2018-12-12T11:07:42.030Z,5.50
2018-12-12T11:10:10.441Z,5.60
2018-12-12T11:12:38.815Z,5.60
2018-12-12T11:15:07.364Z,5.60
2018-12-12T11:17:35.695Z,5.60
2018-12-12T11:20:04.523Z,5.70
2018-12-12T11:22:32.871Z,5.70
2018-12-12T11:25:01.216Z,5.70
2018-12-12T11:27:29.536Z,5.70
2018-12-12T11:29:57.875Z,5.70
2018-12-12T11:32:26.219Z,5.70
2018-12-12T11:34:54.656Z,5.60
2018-12-12T11:37:22.990Z,5.60
2018-12-12T11:39:51.382Z,5.60
2018-12-12T11:42:19.721Z,5.60
2018-12-12T11:44:48.089Z,5.50
2018-12-12T11:47:16.418Z,5.50
2018-12-12T11:49:44.755Z,5.50
2018-12-12T11:52:13.114Z,5.50
2018-12-12T11:54:41.488Z,5.60
2018-12-12T11:57:10.142Z,5.60
2018-12-12T11:59:38.482Z,5.60
2018-12-12T12:02:06.909Z,5.60
2018-12-12T12:04:35.267Z,5.60
2018-12-12T12:07:03.588Z,5.70
2018-12-12T12:09:31.930Z,5.70
2018-12-12T12:12:00.261Z,5.80
2018-12-12T12:14:28.616Z,5.80
2018-12-12T12:16:56.936Z,5.80
2018-12-12T12:19:25.308Z,5.90
2018-12-12T12:21:53.671Z,5.90
2018-12-12T12:24:22.047Z,5.90
2018-12-12T12:26:50.503Z,5.90
2018-12-12T12:29:19.020Z,5.90
2018-12-12T12:31:47.466Z,5.90
2018-12-12T12:34:15.828Z,6.00
2018-12-12T12:36:44.666Z,6.00
2018-12-12T12:39:13.004Z,6.00
2018-12-12T12:41:41.336Z,6.00
2018-12-12T12:44:09.701Z,6.00
2018-12-12T12:46:38.031Z,6.00
2018-12-12T12:49:06.367Z,6.00
2018-12-12T12:51:34.725Z,6.00
2018-12-12T12:54:03.073Z,6.00
2018-12-12T12:56:31.463Z,6.00
2018-12-12T12:58:59.784Z,6.00
2018-12-12T13:01:28.143Z,6.00
2018-12-12T13:03:56.484Z,5.90
2018-12-12T13:06:24.918Z,5.90
2018-12-12T13:08:53.286Z,5.90
2018-12-12T13:11:21.668Z,5.90
2018-12-12T13:13:50.035Z,5.90
2018-12-12T13:16:18.386Z,5.90
2018-12-12T13:18:46.722Z,5.80
2018-12-12T13:21:15.087Z,5.90
2018-12-12T13:23:43.430Z,5.80
2018-12-12T13:26:11.776Z,5.80
2018-12-12T13:28:40.086Z,5.80
2018-12-12T13:31:08.435Z,5.80
2018-12-12T13:33:36.758Z,5.80
2018-12-12T13:36:05.116Z,5.80
2018-12-12T13:38:33.531Z,5.80
2018-12-12T13:41:01.868Z,5.80
2018-12-12T13:43:30.212Z,5.80
2018-12-12T13:45:58.564Z,5.80
2018-12-12T13:48:26.902Z,5.80
2018-12-12T13:50:55.266Z,5.80
2018-12-12T13:53:23.583Z,5.70
2018-12-12T13:55:51.938Z,5.70
2018-12-12T13:58:20.381Z,5.60
2018-12-12T14:00:48.730Z,5.60
2018-12-12T14:03:17.053Z,5.60
2018-12-12T14:05:45.439Z,5.60
2018-12-12T14:08:13.741Z,5.60
2018-12-12T14:10:42.224Z,5.60
2018-12-12T14:13:10.538Z,5.50
2018-12-12T14:15:38.872Z,5.50
2018-12-12T14:18:07.315Z,5.50
2018-12-12T14:20:35.688Z,5.50
2018-12-12T14:23:04.098Z,5.50
2018-12-12T14:25:32.691Z,5.50
2018-12-12T14:28:01.113Z,5.40
2018-12-12T14:30:29.506Z,5.40
2018-12-12T14:32:57.863Z,5.40
2018-12-12T14:35:26.392Z,5.40
2018-12-12T14:37:54.807Z,5.30
2018-12-12T14:40:23.130Z,5.30
2018-12-12T14:42:51.481Z,5.30
2018-12-12T14:45:19.825Z,5.20
2018-12-12T14:47:48.207Z,5.20
2018-12-12T14:50:16.550Z,5.10
2018-12-12T14:52:44.872Z,5.10
2018-12-12T14:55:13.215Z,5.10
2018-12-12T14:57:41.563Z,5.00
2018-12-12T15:00:10.107Z,5.00
2018-12-12T15:02:38.634Z,5.00
2018-12-12T15:05:07.206Z,5.00
2018-12-12T15:07:35.549Z,5.00
2018-12-12T15:10:04.558Z,4.90
2018-12-12T15:12:32.950Z,4.90
2018-12-12T15:15:01.346Z,4.80
2018-12-12T15:17:29.714Z,4.80
2018-12-12T15:19:58.085Z,4.70
2018-12-12T15:22:26.998Z,4.60
2018-12-12T15:24:55.363Z,4.50
2018-12-12T15:27:23.726Z,4.40
2018-12-12T15:29:52.046Z,4.40
2018-12-12T15:32:20.431Z,4.30
2018-12-12T15:34:48.755Z,4.20
2018-12-12T15:37:17.116Z,4.10
2018-12-12T15:39:45.575Z,4.00
2018-12-12T15:42:13.918Z,4.00
2018-12-12T15:44:42.259Z,3.90
2018-12-12T15:47:10.624Z,3.80
2018-12-12T15:49:38.987Z,3.80
2018-12-12T15:52:07.311Z,3.70
2018-12-12T15:54:35.702Z,3.60
2018-12-12T15:57:04.047Z,3.60
2018-12-12T15:59:32.460Z,3.50
2018-12-12T16:02:00.899Z,3.50
2018-12-12T16:04:29.248Z,3.50
2018-12-12T16:06:57.595Z,3.60
2018-12-12T16:09:25.997Z,3.60
2018-12-12T16:11:54.354Z,3.60
2018-12-12T16:14:23.371Z,3.50
2018-12-12T16:16:51.691Z,3.50
2018-12-12T16:19:21.994Z,3.40
2018-12-12T16:21:50.394Z,3.30
2018-12-12T16:24:18.778Z,3.20
2018-12-12T16:26:47.095Z,3.10
2018-12-12T16:29:15.526Z,3.00
2018-12-12T16:31:43.986Z,2.90
2018-12-12T16:34:12.343Z,2.80
2018-12-12T16:36:40.751Z,2.70
2018-12-12T16:39:09.146Z,2.70
2018-12-12T16:41:37.582Z,2.60
2018-12-12T16:44:05.926Z,2.60
2018-12-12T16:46:34.268Z,2.50
2018-12-12T16:49:02.624Z,2.50
2018-12-12T16:51:30.983Z,2.40
2018-12-12T16:53:59.356Z,2.40
2018-12-12T16:56:27.708Z,2.40
2018-12-12T16:58:56.556Z,2.40
2018-12-12T17:01:24.931Z,2.40
2018-12-12T17:03:53.277Z,2.40
2018-12-12T17:06:21.626Z,2.40
2018-12-12T17:08:50.091Z,2.50
2018-12-12T17:11:18.555Z,2.50
2018-12-12T17:13:46.974Z,2.60
2018-12-12T17:16:15.351Z,2.60
2018-12-12T17:18:43.731Z,2.60
2018-12-12T17:21:12.167Z,2.60
2018-12-12T17:23:40.553Z,2.50
2018-12-12T17:26:08.890Z,2.50
2018-12-12T17:28:37.251Z,2.50
2018-12-12T17:31:05.679Z,2.50
2018-12-12T17:33:34.008Z,2.50
2018-12-12T17:36:02.363Z,2.50
2018-12-12T17:38:30.699Z,2.50
2018-12-12T17:40:59.049Z,2.60
2018-12-12T17:43:27.386Z,2.60
2018-12-12T17:45:55.792Z,2.60
2018-12-12T17:48:24.114Z,2.70
2018-12-12T17:50:52.450Z,2.70
2018-12-12T17:53:20.765Z,2.70
2018-12-12T17:55:49.115Z,2.80
2018-12-12T17:58:18.481Z,2.80
2018-12-12T18:00:46.954Z,2.80
2018-12-12T18:03:15.298Z,2.90
2018-12-12T18:05:43.642Z,2.90
2018-12-12T18:08:12.078Z,2.90
2018-12-12T18:10:40.580Z,2.90
2018-12-12T18:13:08.996Z,3.00
2018-12-12T18:15:37.354Z,3.00
2018-12-12T18:18:06.715Z,3.00
2018-12-12T18:20:35.084Z,3.00
2018-12-12T18:23:03.494Z,3.10
2018-12-12T18:25:31.871Z,3.10
2018-12-12T18:28:00.206Z,3.10
2018-12-12T18:30:28.561Z,3.20
2018-12-12T18:32:56.895Z,3.20
2018-12-12T18:35:25.302Z,3.20
2018-12-12T18:37:53.694Z,3.20
2018-12-12T18:40:22.043Z,3.30
2018-12-12T18:42:50.446Z,3.30
2018-12-12T18:45:18.894Z,3.30
2018-12-12T18:47:47.263Z,3.30
2018-12-12T18:50:15.677Z,3.30
2018-12-12T18:52:44.367Z,3.30
2018-12-12T18:55:12.710Z,3.30
2018-12-12T18:57:41.155Z,3.40
2018-12-12T19:00:09.834Z,3.40
2018-12-12T19:02:38.766Z,3.40
2018-12-12T19:05:07.346Z,3.40
2018-12-12T19:07:36.132Z,3.40
2018-12-12T19:10:05.701Z,3.40
2018-12-12T19:12:34.505Z,3.40
2018-12-12T19:15:05.425Z,3.40
2018-12-12T19:17:34.416Z,3.40
2018-12-12T19:20:02.996Z,3.40
2018-12-12T19:22:31.703Z,3.50
2018-12-12T19:25:00.667Z,3.50
2018-12-12T19:27:29.482Z,3.50
2018-12-12T19:29:57.983Z,3.50
2018-12-12T19:32:27.014Z,3.60
2018-12-12T19:34:55.893Z,3.60
2018-12-12T19:37:24.279Z,3.60
2018-12-12T19:39:53.299Z,3.60
2018-12-12T19:42:22.122Z,3.60
2018-12-12T19:44:51.267Z,3.60
2018-12-12T19:47:20.424Z,3.60
2018-12-12T19:49:49.319Z,3.70
2018-12-12T19:52:18.335Z,3.70
2018-12-12T19:54:47.091Z,3.70
2018-12-12T19:57:15.783Z,3.70
2018-12-12T19:59:44.723Z,3.70
2018-12-12T20:02:13.249Z,3.70
2018-12-12T20:04:41.707Z,3.70
2018-12-12T20:07:11.234Z,3.70
2018-12-12T20:09:40.653Z,3.70
2018-12-12T20:12:09.414Z,3.70
2018-12-12T20:14:39.336Z,3.70
2018-12-12T20:17:08.103Z,3.70
2018-12-12T20:19:36.931Z,3.70
2018-12-12T20:22:05.403Z,3.80
2018-12-12T20:24:34.416Z,3.80
2018-12-12T20:27:03.121Z,3.80
2018-12-12T20:29:31.790Z,3.80
2018-12-12T20:32:00.367Z,3.80
2018-12-12T20:34:28.731Z,3.80
2018-12-12T20:36:57.572Z,3.80
2018-12-12T20:39:26.746Z,3.80
2018-12-12T20:41:55.692Z,3.80
2018-12-12T20:44:24.919Z,3.80
2018-12-12T20:46:54.145Z,3.80
2018-12-12T20:49:22.879Z,3.70
2018-12-12T20:51:51.896Z,3.70
2018-12-12T20:54:20.584Z,3.70
2018-12-12T20:56:50.092Z,3.70
2018-12-12T20:59:19.317Z,3.70
2018-12-12T21:01:49.317Z,3.70
2018-12-12T21:04:20.042Z,3.70
2018-12-12T21:06:48.442Z,3.80
2018-12-12T21:09:16.855Z,3.80
2018-12-12T21:11:45.186Z,3.80
2018-12-12T21:14:13.539Z,3.80
2018-12-12T21:16:41.940Z,3.90
2018-12-12T21:19:10.351Z,3.90
2018-12-12T21:21:38.702Z,4.00
2018-12-12T21:24:07.094Z,4.00
2018-12-12T21:26:35.483Z,3.90
2018-12-12T21:29:03.937Z,4.00
2018-12-12T21:31:32.306Z,4.00
2018-12-12T21:34:01.144Z,4.00
2018-12-12T21:36:29.578Z,4.00
2018-12-12T21:38:57.940Z,4.00
2018-12-12T21:41:26.293Z,4.00
2018-12-12T21:43:54.633Z,4.00
2018-12-12T21:46:22.974Z,4.00
2018-12-12T21:48:51.326Z,4.10
2018-12-12T21:51:19.722Z,4.00
2018-12-12T21:53:48.084Z,4.00
2018-12-12T21:56:16.447Z,4.10
2018-12-12T21:58:44.817Z,4.10
2018-12-12T22:01:13.191Z,4.00
2018-12-12T22:03:41.523Z,4.00
2018-12-12T22:06:09.930Z,3.90
2018-12-12T22:08:38.442Z,3.90
2018-12-12T22:11:06.798Z,3.90
2018-12-12T22:13:35.162Z,3.90
2018-12-12T22:16:03.515Z,3.90
2018-12-12T22:18:31.888Z,3.90
2018-12-12T22:21:00.233Z,3.90
2018-12-12T22:23:28.651Z,3.90
2018-12-12T22:25:57.019Z,3.90
2018-12-12T22:28:25.384Z,3.90
2018-12-12T22:30:53.782Z,3.90
2018-12-12T22:33:22.130Z,3.90
2018-12-12T22:35:50.478Z,3.90
2018-12-12T22:38:18.826Z,3.90
2018-12-12T22:40:47.162Z,3.90
2018-12-12T22:43:15.498Z,3.90
2018-12-12T22:45:44.550Z,3.90
2018-12-12T22:48:13.122Z,3.90
2018-12-12T22:50:41.518Z,3.90
2018-12-12T22:53:10.239Z,3.90
2018-12-12T22:55:38.654Z,3.90
2018-12-12T22:58:07.058Z,3.90
2018-12-12T23:00:35.588Z,4.00
2018-12-12T23:03:04.023Z,4.00
2018-12-12T23:05:32.598Z,4.00
2018-12-12T23:08:00.955Z,4.00
2018-12-12T23:10:29.335Z,4.10
2018-12-12T23:12:57.696Z,4.00
2018-12-12T23:15:26.070Z,4.10
2018-12-12T23:17:54.419Z,4.10
2018-12-12T23:20:22.883Z,4.00
2018-12-12T23:22:51.219Z,4.00
2018-12-12T23:25:19.595Z,4.00
2018-12-12T23:27:47.918Z,4.00
2018-12-12T23:30:16.307Z,4.00
2018-12-12T23:32:44.632Z,4.00
2018-12-12T23:35:13.086Z,4.00
2018-12-12T23:37:41.410Z,3.90
2018-12-12T23:40:09.769Z,3.90
2018-12-12T23:42:38.109Z,3.90
2018-12-12T23:45:13.403Z,3.90
2018-12-12T23:47:41.711Z,3.90
2018-12-12T23:50:10.019Z,3.90
2018-12-12T23:52:38.405Z,3.90
2018-12-12T23:55:06.872Z,3.90
2018-12-12T23:57:35.223Z,3.80
